createdAt,value
2022-08-16T00:01:24.417Z,2.23
2022-08-16T00:03:53.176Z,1.87
2022-08-16T00:06:21.486Z,1.80
2022-08-16T00:08:52.384Z,2.10
2022-08-16T00:11:22.687Z,2.30
2022-08-16T00:13:53.432Z,2.00
2022-08-16T00:17:05.505Z,2.20
2022-08-16T00:19:13.754Z,2.03
2022-08-16T00:21:42.443Z,2.20
2022-08-16T00:24:12.108Z,2.00
2022-08-16T00:26:44.436Z,1.80
2022-08-16T00:29:15.976Z,2.00
2022-08-16T00:31:59.277Z,1.70
2022-08-16T00:34:41.379Z,2.70
2022-08-16T00:37:17.350Z,2.60
2022-08-16T00:39:47.795Z,1.93
2022-08-16T00:42:29.597Z,1.70
2022-08-16T00:45:06.347Z,2.03
2022-08-16T00:47:36.896Z,2.57
2022-08-16T00:50:11.371Z,2.23
2022-08-16T00:52:50.482Z,2.43
2022-08-16T00:55:22.023Z,2.00
2022-08-16T00:57:59.506Z,2.77
2022-08-16T01:00:32.237Z,2.10
2022-08-16T01:03:05.355Z,2.30
2022-08-16T01:05:33.676Z,3.13
2022-08-16T01:08:30.028Z,2.70
2022-08-16T01:10:52.812Z,2.33
2022-08-16T01:13:26.901Z,2.57
2022-08-16T01:16:01.005Z,2.07
2022-08-16T01:18:40.412Z,2.33
2022-08-16T01:21:22.203Z,2.67
2022-08-16T01:24:51.985Z,2.90
2022-08-16T01:27:11.089Z,2.23
2022-08-16T01:29:58.211Z,2.33
2022-08-16T01:32:33.186Z,2.70
2022-08-16T01:35:03.339Z,2.47
2022-08-16T01:37:38.685Z,2.33
2022-08-16T01:40:09.776Z,2.93
2022-08-16T01:42:38.064Z,2.60
2022-08-16T01:45:10.875Z,2.53
2022-08-16T01:47:49.252Z,3.30
2022-08-16T01:50:41.866Z,3.17
2022-08-16T01:53:10.162Z,2.53
2022-08-16T01:55:41.477Z,3.70
2022-08-16T01:58:10.846Z,2.87
2022-08-16T02:00:40.445Z,2.93
2022-08-16T02:03:08.584Z,2.50
2022-08-16T02:05:46.520Z,2.60
2022-08-16T02:08:31.874Z,2.70
2022-08-16T02:11:04.689Z,2.70
2022-08-16T02:13:33.026Z,3.23
2022-08-16T02:16:01.550Z,2.73
2022-08-16T02:18:29.912Z,3.27
2022-08-16T02:20:58.029Z,3.50
2022-08-16T02:23:29.565Z,2.50
2022-08-16T02:25:59.475Z,2.90
2022-08-16T02:28:30.162Z,3.00
2022-08-16T02:31:01.197Z,3.50
2022-08-16T02:33:44.679Z,3.20
2022-08-16T02:36:47.236Z,3.10
2022-08-16T02:39:09.690Z,2.83
2022-08-16T02:41:40.017Z,3.00
2022-08-16T02:44:13.646Z,3.13
2022-08-16T02:46:50.372Z,2.70
2022-08-16T02:49:19.264Z,3.33
2022-08-16T02:51:48.480Z,3.03
2022-08-16T02:54:18.238Z,3.10
2022-08-16T02:56:47.814Z,4.13
2022-08-16T02:59:17.482Z,3.30
2022-08-16T03:01:47.294Z,3.27
2022-08-16T03:04:41.499Z,2.73
2022-08-16T03:07:06.704Z,3.27
2022-08-16T03:09:37.613Z,3.87
2022-08-16T03:12:06.894Z,3.60
2022-08-16T03:14:36.672Z,3.33
2022-08-16T03:17:06.351Z,3.33
2022-08-16T03:19:47.595Z,3.80
2022-08-16T03:22:27.945Z,3.37
2022-08-16T03:25:00.924Z,3.03
2022-08-16T03:27:30.769Z,2.47
2022-08-16T03:30:02.526Z,2.93
2022-08-16T03:32:45.361Z,2.93
2022-08-16T03:35:17.911Z,3.23
2022-08-16T03:38:01.731Z,3.10
2022-08-16T03:40:33.792Z,2.90
2022-08-16T03:43:20.792Z,3.07
2022-08-16T03:45:53.448Z,3.60
2022-08-16T03:48:36.887Z,3.83
2022-08-16T03:51:09.873Z,3.53
2022-08-16T03:53:41.178Z,3.70
2022-08-16T03:56:19.651Z,3.30
2022-08-16T03:58:51.062Z,3.97
2022-08-16T04:01:22.605Z,3.03
2022-08-16T04:03:52.789Z,4.00
2022-08-16T04:06:27.279Z,3.50
2022-08-16T04:08:55.316Z,3.20
2022-08-16T04:11:25.000Z,3.07
2022-08-16T04:14:00.333Z,2.77
2022-08-16T04:16:37.710Z,3.10
2022-08-16T04:19:06.038Z,3.57
2022-08-16T04:21:35.965Z,4.50
2022-08-16T04:24:14.321Z,3.07
2022-08-16T04:26:46.408Z,3.70
2022-08-16T04:29:23.446Z,2.57
2022-08-16T04:31:56.544Z,3.50
2022-08-16T04:34:27.210Z,2.87
2022-08-16T04:36:56.789Z,3.20
2022-08-16T04:39:45.796Z,4.40
2022-08-16T04:42:13.580Z,3.73
2022-08-16T04:44:55.037Z,3.80
2022-08-16T04:47:31.371Z,3.53
2022-08-16T04:50:00.658Z,3.60
2022-08-16T04:52:34.679Z,3.83
2022-08-16T04:55:08.416Z,3.77
2022-08-16T04:57:38.269Z,3.30
2022-08-16T05:00:30.729Z,3.27
2022-08-16T05:03:07.280Z,4.07
2022-08-16T05:05:45.353Z,3.73
2022-08-16T05:08:28.375Z,3.20
2022-08-16T05:11:00.203Z,4.00
2022-08-16T05:13:40.043Z,4.07
2022-08-16T05:16:20.128Z,4.23
2022-08-16T05:18:52.504Z,3.13
2022-08-16T05:21:22.091Z,3.70
2022-08-16T05:23:55.358Z,3.37
2022-08-16T05:26:27.832Z,3.60
2022-08-16T05:28:57.343Z,3.50
2022-08-16T05:31:29.672Z,4.30
2022-08-16T05:34:01.156Z,2.50
2022-08-16T05:36:36.827Z,3.67
2022-08-16T05:39:08.715Z,3.67
2022-08-16T05:41:44.945Z,4.07
2022-08-16T05:44:23.509Z,4.27
2022-08-16T05:46:54.542Z,3.70
2022-08-16T05:49:24.315Z,2.80
2022-08-16T05:51:55.064Z,2.80
2022-08-16T05:54:25.636Z,3.70
2022-08-16T05:56:55.807Z,3.53
2022-08-16T05:59:24.419Z,4.70
2022-08-16T06:01:55.062Z,4.50
2022-08-16T06:04:36.252Z,3.80
2022-08-16T06:07:08.919Z,2.93
2022-08-16T06:09:44.530Z,3.30
2022-08-16T06:12:27.373Z,3.77
2022-08-16T06:14:59.858Z,4.03
2022-08-16T06:17:41.102Z,4.17
2022-08-16T06:20:14.332Z,3.37
2022-08-16T06:22:45.134Z,3.97
2022-08-16T06:25:16.003Z,3.57
2022-08-16T06:27:57.336Z,2.80
2022-08-16T06:30:28.922Z,3.40
2022-08-16T06:32:57.192Z,4.07
2022-08-16T06:35:26.922Z,3.93
2022-08-16T06:38:32.809Z,3.70
2022-08-16T06:40:56.834Z,3.80
2022-08-16T06:43:27.611Z,3.80
2022-08-16T06:45:56.828Z,3.23
2022-08-16T06:48:32.291Z,3.03
2022-08-16T06:51:03.248Z,3.50
2022-08-16T06:53:33.464Z,3.60
2022-08-16T06:56:14.830Z,3.40
2022-08-16T06:58:53.127Z,3.43
2022-08-16T07:01:43.458Z,3.20
2022-08-16T07:04:11.912Z,3.93
2022-08-16T07:06:43.201Z,3.87
2022-08-16T07:09:12.449Z,3.70
2022-08-16T07:11:47.587Z,3.20
2022-08-16T07:14:23.734Z,2.77
2022-08-16T07:16:53.824Z,3.27
2022-08-16T07:19:21.864Z,2.97
2022-08-16T07:22:39.199Z,3.53
2022-08-16T07:24:59.239Z,4.00
2022-08-16T07:27:27.478Z,3.90
2022-08-16T07:29:56.396Z,2.97
2022-08-16T07:32:29.586Z,3.77
2022-08-16T07:34:59.794Z,3.90
2022-08-16T07:37:29.144Z,3.50
2022-08-16T07:39:57.533Z,3.60
2022-08-16T07:42:28.414Z,3.73
2022-08-16T07:45:03.439Z,3.57
2022-08-16T07:47:36.034Z,3.50
2022-08-16T07:50:07.831Z,3.30
2022-08-16T07:52:38.942Z,3.80
2022-08-16T07:55:08.819Z,3.40
2022-08-16T07:57:44.350Z,4.27
2022-08-16T08:00:25.197Z,5.67
2022-08-16T08:02:55.520Z,3.60
2022-08-16T08:05:35.634Z,4.20
2022-08-16T08:08:11.835Z,3.90
2022-08-16T08:10:54.339Z,4.60
2022-08-16T08:13:28.899Z,4.33
2022-08-16T08:16:19.165Z,4.07
2022-08-16T08:18:50.258Z,4.80
2022-08-16T08:21:27.474Z,5.00
2022-08-16T08:24:16.122Z,4.67
2022-08-16T08:26:50.323Z,4.27
2022-08-16T08:29:23.186Z,4.60
2022-08-16T08:33:00.038Z,4.77
2022-08-16T08:34:53.974Z,4.03
2022-08-16T08:37:22.524Z,3.97
2022-08-16T08:39:55.460Z,3.70
2022-08-16T08:42:26.764Z,3.97
2022-08-16T08:44:56.375Z,3.73
2022-08-16T08:47:24.438Z,4.00
2022-08-16T08:49:55.579Z,4.13
2022-08-16T08:52:34.943Z,4.50
2022-08-16T08:55:12.869Z,5.17
2022-08-16T08:57:41.818Z,4.50
2022-08-16T09:00:13.546Z,3.50
2022-08-16T09:02:43.154Z,3.00
2022-08-16T09:05:15.393Z,4.17
2022-08-16T09:08:01.734Z,4.43
2022-08-16T09:10:34.062Z,3.43
2022-08-16T09:13:08.083Z,4.20
2022-08-16T09:15:39.725Z,3.60
2022-08-16T09:18:26.605Z,3.63
2022-08-16T09:21:00.155Z,3.70
2022-08-16T09:23:31.084Z,3.77
2022-08-16T09:26:45.036Z,3.60
2022-08-16T09:29:15.931Z,4.17
2022-08-16T09:31:44.923Z,3.60
2022-08-16T09:34:18.651Z,3.80
2022-08-16T09:36:47.541Z,3.20
2022-08-16T09:39:16.481Z,3.80
2022-08-16T09:41:53.164Z,4.13
2022-08-16T09:45:11.655Z,3.57
2022-08-16T09:47:12.107Z,3.23
2022-08-16T09:49:40.962Z,3.00
2022-08-16T09:52:10.663Z,3.10
2022-08-16T09:54:44.652Z,3.90
2022-08-16T09:57:14.879Z,2.80
2022-08-16T09:59:43.424Z,3.60
2022-08-16T10:02:26.726Z,3.87
2022-08-16T10:04:56.686Z,4.23
2022-08-16T10:07:25.097Z,3.53
2022-08-16T10:09:54.912Z,3.00
2022-08-16T10:12:56.944Z,2.87
2022-08-16T10:15:30.120Z,4.00
2022-08-16T10:18:02.531Z,4.10
2022-08-16T10:20:49.786Z,3.77
2022-08-16T10:23:18.061Z,3.27
2022-08-16T10:27:16.246Z,3.00
2022-08-16T10:28:39.533Z,3.93
2022-08-16T10:31:11.694Z,3.17
2022-08-16T10:33:42.750Z,3.97
2022-08-16T10:36:12.400Z,4.00
2022-08-16T10:39:00.373Z,2.90
2022-08-16T10:41:28.633Z,2.73
2022-08-16T10:43:59.368Z,2.67
2022-08-16T10:46:39.931Z,2.60
2022-08-16T10:49:11.259Z,3.00
2022-08-16T10:52:01.093Z,3.10
2022-08-16T10:54:28.828Z,2.83
2022-08-16T10:56:58.593Z,2.83
2022-08-16T10:59:39.206Z,3.17
2022-08-16T11:02:58.871Z,2.83
2022-08-16T11:05:08.009Z,3.80
2022-08-16T11:07:55.197Z,2.60
2022-08-16T11:13:58.268Z,3.40
2022-08-16T11:19:06.334Z,3.17
2022-08-16T11:24:41.595Z,2.67
2022-08-16T11:27:23.593Z,2.80
2022-08-16T11:29:55.013Z,2.67
2022-08-16T11:32:31.181Z,2.87
2022-08-16T11:35:10.855Z,2.90
2022-08-16T11:40:34.282Z,2.37
2022-08-16T11:43:05.438Z,2.40
2022-08-16T11:45:35.051Z,3.10
2022-08-16T11:48:05.737Z,3.33
2022-08-16T11:50:35.401Z,2.60
2022-08-16T11:53:05.202Z,2.40
2022-08-16T11:55:34.725Z,2.53
2022-08-16T11:58:07.510Z,2.37
2022-08-16T12:00:51.638Z,2.33
2022-08-16T12:03:34.807Z,2.90
2022-08-16T12:06:10.736Z,3.10
2022-08-16T12:08:42.652Z,2.90
2022-08-16T12:11:11.734Z,3.00
2022-08-16T12:13:40.580Z,2.70
2022-08-16T12:16:09.413Z,2.37
2022-08-16T12:18:40.510Z,2.70
2022-08-16T12:21:09.870Z,2.57
2022-08-16T12:23:38.343Z,2.73
2022-08-16T12:26:10.416Z,2.90
2022-08-16T12:28:55.941Z,2.60
2022-08-16T12:31:25.252Z,2.90
2022-08-16T12:33:57.486Z,2.90
2022-08-16T12:36:26.208Z,3.30
2022-08-16T12:38:58.046Z,3.23
2022-08-16T12:41:26.998Z,3.90
2022-08-16T12:43:57.075Z,2.80
2022-08-16T12:46:30.988Z,2.33
2022-08-16T12:49:01.089Z,3.03
2022-08-16T12:51:59.651Z,3.10
2022-08-16T12:54:21.169Z,2.80
2022-08-16T12:56:50.487Z,2.73
2022-08-16T12:59:20.874Z,2.80
2022-08-16T13:01:50.574Z,2.70
2022-08-16T13:04:27.979Z,2.43
2022-08-16T13:09:42.116Z,3.03
2022-08-16T13:12:19.725Z,2.60
2022-08-16T13:14:49.977Z,2.20
2022-08-16T13:17:20.880Z,3.47
2022-08-16T13:20:09.442Z,2.50
2022-08-16T13:25:12.983Z,2.50
2022-08-16T13:28:02.987Z,2.90
2022-08-16T13:30:37.046Z,3.87
2022-08-16T13:33:13.346Z,2.80
2022-08-16T13:35:55.673Z,2.10
2022-08-16T13:38:25.656Z,2.73
2022-08-16T13:40:56.057Z,2.27
2022-08-16T13:43:24.979Z,2.50
2022-08-16T13:45:55.540Z,2.70
2022-08-16T13:48:25.297Z,2.80
2022-08-16T13:50:56.273Z,3.00
2022-08-16T13:53:25.673Z,2.70
2022-08-16T13:55:58.660Z,3.23
2022-08-16T13:58:34.689Z,2.47
2022-08-16T14:01:10.041Z,3.37
2022-08-16T14:03:39.367Z,2.60
2022-08-16T14:06:10.853Z,2.20
2022-08-16T14:08:42.414Z,2.40
2022-08-16T14:11:12.455Z,2.20
2022-08-16T14:13:42.062Z,2.53
2022-08-16T14:16:12.489Z,2.23
2022-08-16T14:18:52.837Z,2.70
2022-08-16T14:21:23.651Z,2.13
2022-08-16T14:23:52.443Z,2.77
2022-08-16T14:26:21.384Z,2.73
2022-08-16T14:28:50.899Z,2.27
2022-08-16T14:31:19.991Z,2.13
2022-08-16T14:33:48.328Z,2.90
2022-08-16T14:36:18.624Z,2.37
2022-08-16T14:38:59.078Z,2.00
2022-08-16T14:41:27.449Z,2.53
2022-08-16T14:43:56.642Z,2.23
2022-08-16T14:46:25.067Z,1.90
2022-08-16T14:48:54.267Z,2.60
2022-08-16T14:51:23.181Z,1.70
2022-08-16T14:53:56.772Z,1.93
2022-08-16T14:56:42.496Z,2.27
2022-08-16T14:59:12.008Z,2.40
2022-08-16T15:01:57.344Z,2.10
2022-08-16T15:04:39.741Z,2.40
2022-08-16T15:07:16.510Z,2.57
2022-08-16T15:10:00.752Z,2.60
2022-08-16T15:12:34.205Z,2.20
2022-08-16T15:15:12.372Z,3.03
2022-08-16T15:17:54.644Z,2.13
2022-08-16T15:20:29.097Z,2.20
2022-08-16T15:22:59.946Z,2.30
2022-08-16T15:25:30.827Z,2.40
2022-08-16T15:28:04.555Z,2.23
2022-08-16T15:30:56.573Z,2.10
2022-08-16T15:33:25.295Z,1.77
2022-08-16T15:35:55.464Z,2.37
2022-08-16T15:38:54.669Z,2.10
2022-08-16T15:41:45.287Z,1.80
2022-08-16T15:44:22.232Z,1.93
2022-08-16T15:46:55.777Z,2.00
2022-08-16T15:49:37.825Z,1.30
2022-08-16T15:52:18.332Z,2.10
2022-08-16T15:54:53.324Z,2.57
2022-08-16T15:57:24.066Z,2.40
2022-08-16T15:59:56.400Z,2.10
2022-08-16T16:02:33.469Z,2.33
2022-08-16T16:05:04.481Z,2.50
2022-08-16T16:07:33.769Z,2.10
2022-08-16T16:10:03.485Z,2.20
2022-08-16T16:12:54.022Z,2.63
2022-08-16T16:15:25.678Z,2.53
2022-08-16T16:17:54.649Z,2.60
2022-08-16T16:20:27.036Z,2.70
2022-08-16T16:22:57.191Z,2.50
2022-08-16T16:25:26.139Z,2.70
2022-08-16T16:27:55.854Z,2.40
2022-08-16T16:30:37.676Z,2.60
2022-08-16T16:33:15.740Z,2.70
2022-08-16T16:35:55.450Z,2.43
2022-08-16T16:38:28.886Z,2.80
2022-08-16T16:40:57.973Z,2.90
2022-08-16T16:43:31.615Z,2.97
2022-08-16T16:46:03.145Z,3.07
2022-08-16T16:48:52.419Z,2.93
2022-08-16T16:51:22.079Z,3.00
2022-08-16T16:53:56.095Z,3.00
2022-08-16T16:56:31.294Z,2.60
2022-08-16T16:59:04.838Z,2.63
2022-08-16T17:01:56.505Z,3.00
2022-08-16T17:04:31.602Z,2.43
2022-08-16T17:07:01.949Z,3.13
2022-08-16T17:09:30.781Z,2.10
2022-08-16T17:11:59.879Z,3.50
2022-08-16T17:17:18.723Z,2.53
2022-08-16T17:19:48.099Z,2.73
2022-08-16T17:22:20.246Z,3.10
2022-08-16T17:24:52.518Z,2.83
2022-08-16T17:27:32.729Z,3.10
2022-08-16T17:30:02.710Z,2.53
2022-08-16T17:32:44.567Z,3.03
2022-08-16T17:35:19.924Z,3.40
2022-08-16T17:37:51.378Z,3.00
2022-08-16T17:39:26.341Z,3.00
2022-08-16T17:40:32.049Z,2.93
2022-08-16T17:43:10.558Z,3.33
2022-08-16T17:45:39.227Z,3.53
2022-08-16T17:48:08.761Z,3.10
2022-08-16T17:50:36.769Z,3.20
2022-08-16T17:53:08.402Z,3.03
2022-08-16T17:55:38.556Z,3.20
2022-08-16T17:58:22.704Z,3.00
2022-08-16T18:00:53.473Z,3.00
2022-08-16T18:04:08.790Z,2.93
2022-08-16T18:06:17.722Z,2.83
2022-08-16T18:08:48.588Z,3.60
2022-08-16T18:11:18.929Z,3.33
2022-08-16T18:13:54.645Z,3.43
2022-08-16T18:16:22.766Z,3.30
2022-08-16T18:18:52.148Z,2.93
2022-08-16T18:21:37.549Z,3.03
2022-08-16T18:24:05.944Z,3.20
2022-08-16T18:26:33.993Z,2.70
2022-08-16T18:29:01.933Z,3.20
2022-08-16T18:31:30.116Z,3.70
2022-08-16T18:33:59.666Z,3.10
2022-08-16T18:36:27.685Z,4.20
2022-08-16T18:38:56.311Z,3.00
2022-08-16T18:41:26.620Z,3.23
2022-08-16T18:44:24.022Z,3.23
2022-08-16T18:46:44.534Z,3.63
2022-08-16T18:49:18.009Z,3.50
2022-08-16T18:51:46.859Z,4.33
2022-08-16T18:54:19.014Z,3.23
2022-08-16T18:56:56.099Z,3.40
2022-08-16T18:59:27.552Z,3.83
2022-08-16T19:02:03.898Z,3.73
2022-08-16T19:04:54.878Z,3.13
2022-08-16T19:07:30.944Z,4.77
2022-08-16T19:10:00.763Z,3.40
2022-08-16T19:12:38.273Z,3.57
2022-08-16T19:15:13.546Z,2.93
2022-08-16T19:17:42.903Z,3.53
2022-08-16T19:20:13.841Z,4.20
2022-08-16T19:25:47.676Z,3.97
2022-08-16T19:28:49.167Z,4.30
2022-08-16T19:31:10.802Z,4.10
2022-08-16T19:33:39.057Z,3.30
2022-08-16T19:36:16.993Z,4.07
2022-08-16T19:38:57.078Z,4.47
2022-08-16T19:41:33.353Z,3.60
2022-08-16T19:44:01.318Z,4.50
2022-08-16T19:46:29.339Z,3.80
2022-08-16T19:48:57.363Z,3.83
2022-08-16T19:51:26.795Z,4.23
2022-08-16T19:53:54.755Z,3.80
2022-08-16T19:56:25.755Z,3.50
2022-08-16T20:01:43.018Z,4.20
2022-08-16T20:04:12.704Z,3.67
2022-08-16T20:06:42.865Z,4.80
2022-08-16T20:09:14.724Z,4.13
2022-08-16T20:11:43.958Z,4.20
2022-08-16T20:14:20.225Z,4.77
2022-08-16T20:16:55.325Z,3.70
2022-08-16T20:19:23.500Z,4.63
2022-08-16T20:21:52.996Z,4.00
2022-08-16T20:24:36.692Z,4.57
2022-08-16T20:27:07.296Z,4.40
2022-08-16T20:29:35.685Z,4.33
2022-08-16T20:32:04.677Z,4.47
2022-08-16T20:34:32.768Z,5.10
2022-08-16T20:37:02.351Z,4.83
2022-08-16T20:39:30.472Z,4.93
2022-08-16T20:41:58.772Z,4.17
2022-08-16T20:44:26.721Z,4.97
2022-08-16T20:46:54.732Z,4.60
2022-08-16T20:49:22.730Z,4.43
2022-08-16T20:51:55.936Z,3.90
2022-08-16T20:54:28.573Z,4.83
2022-08-16T20:56:56.625Z,5.47
2022-08-16T20:59:24.705Z,4.23
2022-08-16T21:01:52.742Z,4.13
2022-08-16T21:04:21.246Z,5.40
2022-08-16T21:06:53.713Z,3.43
2022-08-16T21:09:23.742Z,5.30
2022-08-16T21:11:55.366Z,4.23
2022-08-16T21:14:23.571Z,4.50
2022-08-16T21:16:52.271Z,4.50
2022-08-16T21:19:21.289Z,4.90
2022-08-16T21:21:49.839Z,4.23
2022-08-16T21:24:18.292Z,4.30
2022-08-16T21:26:55.487Z,5.37
2022-08-16T21:29:31.607Z,4.10
2022-08-16T21:32:13.580Z,4.80
2022-08-16T21:34:42.488Z,4.63
2022-08-16T21:37:11.071Z,3.70
2022-08-16T21:39:39.168Z,5.00
2022-08-16T21:42:10.100Z,4.93
2022-08-16T21:44:39.604Z,3.80
2022-08-16T21:47:08.180Z,5.43
2022-08-16T21:49:36.651Z,4.73
2022-08-16T21:52:05.845Z,5.43
2022-08-16T21:54:34.193Z,4.73
2022-08-16T21:57:02.232Z,4.23
2022-08-16T21:59:30.236Z,4.90
2022-08-16T22:02:00.045Z,5.53
2022-08-16T22:04:37.455Z,5.03
2022-08-16T22:07:07.470Z,5.93
2022-08-16T22:09:36.046Z,5.13
2022-08-16T22:12:04.161Z,5.10
2022-08-16T22:14:32.521Z,5.63
2022-08-16T22:17:02.006Z,5.23
2022-08-16T22:19:30.089Z,5.00
2022-08-16T22:21:58.057Z,5.20
2022-08-16T22:24:26.035Z,4.53
2022-08-16T22:26:54.123Z,5.97
2022-08-16T22:29:22.122Z,5.07
2022-08-16T22:31:50.115Z,4.90
2022-08-16T22:34:19.536Z,5.07
2022-08-16T22:36:47.515Z,4.67
2022-08-16T22:39:15.895Z,4.97
2022-08-16T22:41:45.722Z,4.80
2022-08-16T22:44:14.287Z,5.13
2022-08-16T22:46:42.422Z,5.57
2022-08-16T22:49:10.974Z,5.07
2022-08-16T22:51:40.900Z,5.53
2022-08-16T22:54:41.348Z,5.70
2022-08-16T22:56:57.642Z,7.40
2022-08-16T22:59:26.091Z,5.27
2022-08-16T23:01:54.532Z,4.67
2022-08-16T23:04:24.756Z,4.87
2022-08-16T23:06:54.204Z,4.93
2022-08-16T23:09:22.239Z,4.87
2022-08-16T23:11:50.396Z,6.23
2022-08-16T23:14:19.236Z,5.10
2022-08-16T23:16:47.538Z,5.43
2022-08-16T23:19:17.755Z,4.73
2022-08-16T23:21:48.947Z,5.50
2022-08-16T23:24:20.458Z,5.53
2022-08-16T23:26:49.743Z,5.60
2022-08-16T23:29:24.032Z,4.50
2022-08-16T23:31:55.847Z,5.63
2022-08-16T23:34:24.792Z,4.93
2022-08-16T23:36:53.127Z,4.70
2022-08-16T23:39:22.470Z,4.43
2022-08-16T23:41:50.813Z,5.97
2022-08-16T23:44:55.192Z,4.77
2022-08-16T23:47:06.967Z,4.60
2022-08-16T23:50:00.233Z,5.57
2022-08-16T23:52:53.985Z,4.30
2022-08-16T23:55:12.867Z,5.33
2022-08-16T23:57:40.837Z,4.70
